createdAt,value
2022-12-26T00:00:03.258Z,90.2
2022-12-26T00:03:03.398Z,90.2
2022-12-26T00:06:02.962Z,90.2
2022-12-26T00:09:02.963Z,90.2
2022-12-26T00:12:02.982Z,91.7
2022-12-26T00:15:03.095Z,91.7
2022-12-26T00:18:02.971Z,91.7
2022-12-26T00:21:02.999Z,91.7
2022-12-26T00:24:02.913Z,91.7
2022-12-26T00:27:02.979Z,91.7
2022-12-26T00:30:03.023Z,91.7
2022-12-26T00:33:03.043Z,91.7
2022-12-26T00:36:02.933Z,91.7
2022-12-26T00:39:02.961Z,91.7
2022-12-26T00:42:02.990Z,92.5
2022-12-26T00:45:02.952Z,92.5
2022-12-26T00:48:02.972Z,92.5
2022-12-26T00:51:02.992Z,92.5
2022-12-26T00:54:03.004Z,92.5
2022-12-26T00:57:03.027Z,92.5
2022-12-26T01:00:03.033Z,92.5
2022-12-26T01:03:03.433Z,93
2022-12-26T01:06:02.997Z,93
2022-12-26T01:09:02.981Z,93.1
2022-12-26T01:12:02.964Z,93.1
2022-12-26T01:15:03.027Z,93.1
2022-12-26T01:18:03.047Z,93.1
2022-12-26T01:21:02.951Z,93.1
2022-12-26T01:24:03.073Z,93.1
2022-12-26T01:27:02.994Z,93.1
2022-12-26T01:30:02.994Z,93.1
2022-12-26T01:33:02.939Z,93.1
2022-12-26T01:36:03.051Z,93.1
2022-12-26T01:39:02.970Z,93.2
2022-12-26T01:42:02.943Z,93.2
2022-12-26T01:45:03.003Z,93.2
2022-12-26T01:48:02.969Z,93.2
2022-12-26T01:51:02.986Z,93.2
2022-12-26T01:54:45.161Z,93.2
2022-12-26T01:57:03.026Z,93.2
2022-12-26T02:00:03.055Z,93.2
2022-12-26T02:03:03.221Z,93.2
2022-12-26T02:06:03.007Z,93.1
2022-12-26T02:09:03.009Z,93.1
2022-12-26T02:12:40.881Z,93.1
2022-12-26T02:15:02.966Z,93.1
2022-12-26T02:18:02.987Z,93.1
2022-12-26T02:21:02.959Z,93.1
2022-12-26T02:24:03.042Z,93.1
2022-12-26T02:27:02.955Z,93.1
2022-12-26T02:30:03.012Z,93.1
2022-12-26T02:33:02.954Z,93.1
2022-12-26T02:36:02.980Z,93.1
2022-12-26T02:39:03.034Z,93.1
2022-12-26T02:42:03.194Z,93.1
2022-12-26T02:45:03.030Z,93.1
2022-12-26T02:48:02.990Z,93.1
2022-12-26T02:51:02.976Z,92.7
2022-12-26T02:54:02.965Z,92.7
2022-12-26T02:57:03.117Z,92.8
2022-12-26T03:00:03.041Z,92.8
2022-12-26T03:03:03.232Z,92.8
2022-12-26T03:06:03.001Z,92.8
2022-12-26T03:09:02.954Z,92.8
2022-12-26T03:12:03.023Z,92.8
2022-12-26T03:15:03.191Z,92.8
2022-12-26T03:18:03.344Z,92.6
2022-12-26T03:21:03.040Z,92.6
2022-12-26T03:24:03.005Z,92.6
2022-12-26T03:27:03.107Z,92.6
2022-12-26T03:30:03.021Z,92.6
2022-12-26T03:33:02.962Z,92.6
2022-12-26T03:36:03.008Z,92.6
2022-12-26T03:39:02.982Z,92.6
2022-12-26T03:42:03.013Z,92.6
2022-12-26T03:45:03.014Z,92.6
2022-12-26T03:48:03.001Z,92.6
2022-12-26T03:51:02.975Z,92.6
2022-12-26T03:54:03.046Z,92.6
2022-12-26T03:57:02.988Z,92.6
2022-12-26T04:00:03.331Z,92.6
2022-12-26T04:03:02.993Z,92.5
2022-12-26T04:06:02.987Z,92.5
2022-12-26T04:09:02.957Z,92.5
2022-12-26T04:12:02.984Z,92.5
2022-12-26T04:15:02.962Z,92.5
2022-12-26T04:18:02.955Z,92.5
2022-12-26T04:21:02.968Z,92.5
2022-12-26T04:24:02.992Z,92.5
2022-12-26T04:27:03.008Z,92.5
2022-12-26T04:30:03.016Z,92.5
2022-12-26T04:33:03.016Z,92.5
2022-12-26T04:36:03.033Z,92.5
2022-12-26T04:39:02.944Z,92.5
2022-12-26T04:42:02.998Z,92.5
2022-12-26T04:45:02.953Z,92.5
2022-12-26T04:48:03.022Z,92.5
2022-12-26T04:51:02.929Z,92.6
2022-12-26T04:54:03.033Z,92.6
2022-12-26T04:57:02.982Z,92.6
2022-12-26T05:00:03.079Z,92.6
2022-12-26T05:03:03.330Z,92.6
2022-12-26T05:06:03.005Z,92.6
2022-12-26T05:09:02.952Z,92.6
2022-12-26T05:12:02.991Z,92.6
2022-12-26T05:15:03.047Z,92.6
2022-12-26T05:18:02.951Z,92.6
2022-12-26T05:21:02.996Z,92.6
2022-12-26T05:24:03.023Z,92.6
2022-12-26T05:27:03.049Z,92.6
2022-12-26T05:30:03.020Z,92.6
2022-12-26T05:33:02.989Z,92.6
2022-12-26T05:36:02.936Z,92.6
2022-12-26T05:39:03.002Z,93.2
2022-12-26T05:42:03.043Z,93.2
2022-12-26T05:45:02.969Z,93.2
2022-12-26T05:48:02.982Z,93.2
2022-12-26T05:51:02.972Z,93.1
2022-12-26T05:54:03.104Z,93.1
2022-12-26T05:57:02.961Z,93.3
2022-12-26T06:00:03.075Z,93.3
2022-12-26T06:03:03.331Z,93.3
2022-12-26T06:06:03.014Z,93.3
2022-12-26T06:09:03.527Z,93.3
2022-12-26T06:12:02.961Z,93.3
2022-12-26T06:15:02.997Z,93.3
2022-12-26T06:18:02.983Z,93.3
2022-12-26T06:21:02.942Z,93.3
2022-12-26T06:24:03.057Z,93.3
2022-12-26T06:27:02.928Z,93.3
2022-12-26T06:30:03.010Z,93.3
2022-12-26T06:33:02.984Z,93.3
2022-12-26T06:36:02.983Z,93.3
2022-12-26T06:39:03.012Z,93.3
2022-12-26T06:42:03.026Z,93.3
2022-12-26T06:45:02.939Z,94
2022-12-26T06:48:02.980Z,94
2022-12-26T06:51:02.974Z,94
2022-12-26T06:54:02.943Z,94
2022-12-26T06:57:02.916Z,94
2022-12-26T07:00:03.113Z,94
2022-12-26T07:03:03.205Z,93.8
2022-12-26T07:06:03.017Z,93.8
2022-12-26T07:09:03.048Z,93.8
2022-12-26T07:12:02.983Z,93.8
2022-12-26T07:15:04.579Z,93.8
2022-12-26T07:18:02.954Z,93.8
2022-12-26T07:21:02.984Z,93.8
2022-12-26T07:24:02.925Z,93.8
2022-12-26T07:27:02.946Z,93.8
2022-12-26T07:30:03.048Z,93.8
2022-12-26T07:33:03.049Z,93.8
2022-12-26T07:36:03.109Z,93.8
2022-12-26T07:39:03.029Z,93.8
2022-12-26T07:42:03.087Z,93.8
2022-12-26T07:45:03.098Z,93.7
2022-12-26T07:48:03.085Z,93.7
2022-12-26T07:51:03.031Z,93.7
2022-12-26T07:54:12.646Z,93.7
2022-12-26T07:57:50.932Z,93.7
2022-12-26T08:00:03.309Z,93.3
2022-12-26T08:03:10.603Z,93.3
2022-12-26T08:06:03.142Z,93.3
2022-12-26T08:09:03.021Z,93.3
2022-12-26T08:12:03.037Z,93.3
2022-12-26T08:15:03.028Z,93.3
2022-12-26T08:18:03.141Z,93.3
2022-12-26T08:21:03.257Z,93.3
2022-12-26T08:24:03.048Z,93.3
2022-12-26T08:27:03.099Z,93.3
2022-12-26T08:30:03.178Z,91.6
2022-12-26T08:33:03.044Z,91.6
2022-12-26T08:36:03.086Z,91.6
2022-12-26T08:39:03.275Z,91.6
2022-12-26T08:42:03.051Z,91.6
2022-12-26T08:45:03.197Z,91.6
2022-12-26T08:48:03.192Z,91.6
2022-12-26T08:51:03.117Z,91.6
2022-12-26T08:54:03.044Z,90.7
2022-12-26T08:57:03.311Z,90.7
2022-12-26T09:00:03.168Z,90.7
2022-12-26T09:03:03.277Z,90.7
2022-12-26T09:06:08.918Z,90.7
2022-12-26T09:09:03.061Z,90.7
2022-12-26T09:12:03.026Z,90.7
2022-12-26T09:15:03.022Z,90.7
2022-12-26T09:18:03.290Z,90.4
2022-12-26T09:21:03.043Z,90.4
2022-12-26T09:24:03.237Z,90.4
2022-12-26T09:27:03.071Z,90.4
2022-12-26T09:30:03.215Z,90.4
2022-12-26T09:33:03.089Z,90.4
2022-12-26T09:36:14.687Z,90.4
2022-12-26T09:39:03.043Z,90.4
2022-12-26T09:42:03.043Z,90.4
2022-12-26T09:45:03.076Z,90.4
2022-12-26T09:48:02.986Z,90.4
2022-12-26T09:51:03.035Z,90.4
2022-12-26T09:54:03.365Z,90.4
2022-12-26T09:57:13.142Z,90.4
2022-12-26T10:00:03.080Z,90.5
2022-12-26T10:03:02.999Z,90.5
2022-12-26T10:06:03.020Z,90.5
2022-12-26T10:09:03.142Z,90.5
2022-12-26T10:12:03.116Z,90.5
2022-12-26T10:15:03.038Z,90.5
2022-12-26T10:18:03.259Z,90.5
2022-12-26T10:21:03.036Z,90.5
2022-12-26T10:24:03.022Z,90.5
2022-12-26T10:27:03.166Z,90.5
2022-12-26T10:30:03.062Z,90.5
2022-12-26T10:33:03.017Z,90.2
2022-12-26T10:36:03.042Z,90.2
2022-12-26T10:39:03.285Z,90.2
2022-12-26T10:42:02.973Z,90.2
2022-12-26T10:45:03.232Z,90.2
2022-12-26T10:48:02.959Z,90.2
2022-12-26T10:51:03.026Z,90.2
2022-12-26T10:54:03.146Z,90.2
2022-12-26T10:57:03.374Z,90.2
2022-12-26T11:00:03.262Z,90.2
2022-12-26T11:03:03.535Z,90.2
2022-12-26T11:06:12.055Z,90.2
2022-12-26T11:09:03.421Z,90.2
2022-12-26T11:12:03.137Z,90.2
2022-12-26T11:15:03.356Z,88.1
2022-12-26T11:18:03.000Z,88.1
2022-12-26T11:21:06.731Z,88.1
2022-12-26T11:24:02.977Z,88.1
2022-12-26T11:27:04.834Z,88.1
2022-12-26T11:30:03.394Z,88.1
2022-12-26T11:33:05.934Z,88.1
2022-12-26T11:36:03.187Z,88.1
2022-12-26T11:39:03.278Z,88.1
2022-12-26T11:42:03.464Z,88.1
2022-12-26T11:45:03.289Z,88.1
2022-12-26T11:48:03.218Z,86.8
2022-12-26T11:51:03.109Z,86.8
2022-12-26T11:54:03.318Z,86.8
2022-12-26T11:57:03.434Z,86.8
2022-12-26T12:00:03.060Z,86.8
2022-12-26T12:03:03.385Z,86.8
2022-12-26T12:06:03.100Z,86.1
2022-12-26T12:09:08.604Z,86.1
2022-12-26T12:12:03.415Z,86.1
2022-12-26T12:15:03.003Z,86.1
2022-12-26T12:18:03.039Z,86.1
2022-12-26T12:21:03.339Z,86.1
2022-12-26T12:24:03.167Z,86.1
2022-12-26T12:27:07.889Z,86.1
2022-12-26T12:30:03.057Z,86.1
2022-12-26T12:33:03.443Z,86.1
2022-12-26T12:36:03.520Z,86.1
2022-12-26T12:39:03.451Z,86.1
2022-12-26T12:42:03.435Z,86.1
2022-12-26T12:45:03.473Z,86.1
2022-12-26T12:48:03.211Z,86.1
2022-12-26T12:51:03.394Z,86.1
2022-12-26T12:54:03.021Z,86.1
2022-12-26T12:57:03.049Z,86.1
2022-12-26T13:00:03.095Z,86
2022-12-26T13:03:03.638Z,86
2022-12-26T13:06:03.011Z,86
2022-12-26T13:09:03.320Z,86
2022-12-26T13:12:02.976Z,86
2022-12-26T13:15:03.073Z,86
2022-12-26T13:18:03.008Z,83.6
2022-12-26T13:21:03.040Z,83.6
2022-12-26T13:24:03.022Z,83.6
2022-12-26T13:27:02.965Z,83.6
2022-12-26T13:30:03.113Z,83.6
2022-12-26T13:33:02.990Z,83.6
2022-12-26T13:36:03.612Z,83.6
2022-12-26T13:39:03.031Z,83.6
2022-12-26T13:42:03.005Z,83.6
2022-12-26T13:45:02.945Z,83.6
2022-12-26T13:48:03.504Z,83.6
2022-12-26T13:51:03.009Z,83.6
2022-12-26T13:54:02.987Z,83.6
2022-12-26T13:57:03.048Z,81.5
2022-12-26T14:00:03.030Z,81.5
2022-12-26T14:03:22.732Z,81.5
2022-12-26T14:06:03.041Z,81.5
2022-12-26T14:09:03.050Z,81.5
2022-12-26T14:12:02.978Z,81.5
2022-12-26T14:15:03.086Z,81.5
2022-12-26T14:18:03.016Z,81.5
2022-12-26T14:21:03.687Z,81.5
2022-12-26T14:24:03.430Z,81.5
2022-12-26T14:27:02.986Z,81.5
2022-12-26T14:30:03.041Z,81.5
2022-12-26T14:33:04.261Z,81.5
2022-12-26T14:36:03.014Z,82.6
2022-12-26T14:39:03.458Z,82.6
2022-12-26T14:42:02.999Z,82.6
2022-12-26T14:45:03.006Z,82.6
2022-12-26T14:48:03.040Z,82.6
2022-12-26T14:51:03.043Z,82.4
2022-12-26T14:54:03.035Z,82.4
2022-12-26T14:57:02.996Z,82.5
2022-12-26T15:00:06.396Z,83
2022-12-26T15:03:03.315Z,83.8
2022-12-26T15:06:03.032Z,83.8
2022-12-26T15:09:03.064Z,83.8
2022-12-26T15:12:02.982Z,83.8
2022-12-26T15:15:02.956Z,83.8
2022-12-26T15:18:02.955Z,85.5
2022-12-26T15:21:02.976Z,85.5
2022-12-26T15:24:02.955Z,85.5
2022-12-26T15:27:02.925Z,85.5
2022-12-26T15:30:03.108Z,85.5
2022-12-26T15:33:02.982Z,85.5
2022-12-26T15:36:06.130Z,85.5
2022-12-26T15:39:02.958Z,85.5
2022-12-26T15:42:02.999Z,87.7
2022-12-26T15:45:03.011Z,87.7
2022-12-26T15:48:02.988Z,87.3
2022-12-26T15:51:02.972Z,87.3
2022-12-26T15:54:02.949Z,87.3
2022-12-26T15:57:02.973Z,87.3
2022-12-26T16:00:03.056Z,87.3
2022-12-26T16:03:03.130Z,84.6
2022-12-26T16:06:02.984Z,84.6
2022-12-26T16:09:02.953Z,84.6
2022-12-26T16:12:02.990Z,84.6
2022-12-26T16:15:03.055Z,84.4
2022-12-26T16:18:02.915Z,84.4
2022-12-26T16:21:03.071Z,84.4
2022-12-26T16:24:02.910Z,84.4
2022-12-26T16:27:02.931Z,84.7
2022-12-26T16:30:12.078Z,84.7
2022-12-26T16:33:02.985Z,84.7
2022-12-26T16:36:03.749Z,84.7
2022-12-26T16:39:02.965Z,84.7
2022-12-26T16:42:02.995Z,84.7
2022-12-26T16:45:03.001Z,84.7
2022-12-26T16:48:02.946Z,85
2022-12-26T16:51:03.633Z,85
2022-12-26T16:54:02.991Z,85
2022-12-26T16:57:02.986Z,85
2022-12-26T17:00:03.012Z,83.7
2022-12-26T17:03:03.874Z,83.7
2022-12-26T17:06:02.976Z,83.7
2022-12-26T17:09:02.986Z,83.7
2022-12-26T17:12:02.968Z,83.7
2022-12-26T17:15:03.012Z,83.7
2022-12-26T17:18:03.088Z,83.7
2022-12-26T17:21:02.965Z,82.9
2022-12-26T17:24:02.996Z,82.9
2022-12-26T17:27:02.983Z,82.9
2022-12-26T17:30:02.998Z,82.9
2022-12-26T17:33:03.046Z,82.9
2022-12-26T17:39:03.084Z,82.6
2022-12-26T17:42:03.027Z,82.6
2022-12-26T17:45:02.998Z,82.6
2022-12-26T17:48:03.006Z,82.6
2022-12-26T17:51:02.916Z,82.6
2022-12-26T17:54:03.054Z,82.6
2022-12-26T17:57:03.015Z,82.6
2022-12-26T18:00:03.025Z,82.6
2022-12-26T18:03:03.719Z,82.6
2022-12-26T18:06:03.028Z,82.6
2022-12-26T18:09:03.711Z,82.6
2022-12-26T18:12:03.013Z,82.6
2022-12-26T18:15:05.140Z,82.6
2022-12-26T18:18:02.990Z,81.5
2022-12-26T18:21:03.799Z,81.5
2022-12-26T18:24:03.015Z,81.5
2022-12-26T18:27:03.080Z,81.5
2022-12-26T18:30:03.072Z,81.5
2022-12-26T18:33:02.949Z,81.5
2022-12-26T18:36:10.174Z,80.3
2022-12-26T18:39:03.031Z,80.8
2022-12-26T18:42:03.013Z,80.8
2022-12-26T18:45:02.977Z,80.8
2022-12-26T18:48:03.009Z,80.8
2022-12-26T18:51:02.987Z,80.8
2022-12-26T18:54:02.975Z,80.8
2022-12-26T18:57:03.012Z,80.8
2022-12-26T19:00:02.997Z,80.8
2022-12-26T19:03:02.938Z,80.8
2022-12-26T19:06:02.981Z,80.8
2022-12-26T19:09:03.133Z,80.8
2022-12-26T19:12:02.939Z,80.8
2022-12-26T19:15:02.951Z,80.8
2022-12-26T19:18:02.956Z,80.8
2022-12-26T19:21:02.955Z,79.5
2022-12-26T19:24:02.956Z,79.5
2022-12-26T19:27:03.031Z,79.5
2022-12-26T19:30:02.987Z,79.5
2022-12-26T19:33:02.960Z,79.5
2022-12-26T19:36:03.903Z,78.1
2022-12-26T19:39:02.933Z,78
2022-12-26T19:42:02.988Z,78
2022-12-26T19:45:03.019Z,78
2022-12-26T19:48:03.037Z,78.8
2022-12-26T19:51:02.949Z,78.8
2022-12-26T19:54:02.983Z,78.8
2022-12-26T19:57:02.910Z,78.8
2022-12-26T20:00:02.981Z,78.8
2022-12-26T20:03:03.106Z,79.8
2022-12-26T20:06:02.996Z,79.8
2022-12-26T20:09:03.002Z,79.8
2022-12-26T20:12:03.019Z,80.3
2022-12-26T20:15:03.025Z,80.3
2022-12-26T20:18:03.328Z,80.3
2022-12-26T20:21:02.981Z,80.3
2022-12-26T20:24:02.987Z,80.3
2022-12-26T20:27:02.983Z,80.3
2022-12-26T20:30:02.983Z,81
2022-12-26T20:33:02.972Z,80.9
2022-12-26T20:36:02.978Z,80.9
2022-12-26T20:39:02.996Z,80.9
2022-12-26T20:42:02.950Z,80.9
2022-12-26T20:45:02.954Z,81.3
2022-12-26T20:48:02.908Z,81.3
2022-12-26T20:51:02.924Z,81.3
2022-12-26T20:54:03.862Z,81.3
2022-12-26T20:57:03.240Z,81.3
2022-12-26T21:00:03.085Z,81.3
2022-12-26T21:03:03.217Z,81.3
2022-12-26T21:06:03.555Z,81.3
2022-12-26T21:09:04.045Z,81.3
2022-12-26T21:12:04.873Z,81.8
2022-12-26T21:15:04.331Z,81.8
2022-12-26T21:18:03.338Z,81.8
2022-12-26T21:21:03.225Z,81.8
2022-12-26T21:25:08.350Z,82.2
2022-12-26T21:27:03.548Z,82.2
2022-12-26T21:30:03.786Z,82.1
2022-12-26T21:33:03.503Z,82.1
2022-12-26T21:39:03.482Z,81.6
2022-12-26T21:42:03.325Z,81.6
2022-12-26T21:45:03.673Z,81.6
2022-12-26T21:48:03.330Z,81.6
2022-12-26T21:51:03.310Z,81.7
2022-12-26T21:54:03.325Z,81.7
2022-12-26T21:57:03.421Z,81.7
2022-12-26T22:00:03.390Z,81.7
2022-12-26T22:03:03.668Z,81.7
2022-12-26T22:06:03.201Z,81.7
2022-12-26T22:09:03.293Z,81.7
2022-12-26T22:12:03.967Z,81.7
2022-12-26T22:15:03.328Z,81.7
2022-12-26T22:18:03.216Z,81.7
2022-12-26T22:21:03.329Z,81.7
2022-12-26T22:24:03.288Z,82.1
2022-12-26T22:27:03.272Z,82.1
2022-12-26T22:30:03.271Z,82.1
2022-12-26T22:33:03.306Z,82.3
2022-12-26T22:36:03.375Z,82.3
2022-12-26T22:39:03.271Z,82.3
2022-12-26T22:42:05.016Z,82.3
2022-12-26T22:45:03.224Z,82.3
2022-12-26T22:48:03.307Z,82.3
2022-12-26T22:51:03.203Z,82.3
2022-12-26T22:54:03.300Z,82.4
2022-12-26T22:57:03.264Z,82.4
2022-12-26T23:00:13.192Z,82.4
2022-12-26T23:03:03.625Z,82.4
2022-12-26T23:06:03.279Z,82.4
2022-12-26T23:09:03.279Z,82.4
2022-12-26T23:12:03.273Z,82.4
2022-12-26T23:15:03.233Z,83
2022-12-26T23:18:03.278Z,83
2022-12-26T23:21:03.198Z,83
2022-12-26T23:24:03.300Z,83
2022-12-26T23:27:07.028Z,83
2022-12-26T23:30:03.275Z,83
2022-12-26T23:33:03.337Z,83
2022-12-26T23:36:03.332Z,83
2022-12-26T23:39:03.219Z,83
2022-12-26T23:42:03.197Z,83
2022-12-26T23:45:03.308Z,83
2022-12-26T23:48:03.280Z,83
2022-12-26T23:51:03.256Z,83
2022-12-26T23:54:03.307Z,83
2022-12-26T23:57:03.271Z,83
